| time (UTC) | temp C | wind direction | speed KPH | gust KPH | rain 1hr cm | rain 24hr cm | rain mn cm | humidity % | barometer mb |
| 20260906100106 | 17 | 141 | 8.0 | 12.9 | 0.00 | 0.00 | 0.00 | 79 | 1022.2 |
| 20260906095106 | 17 | 133 | 6.4 | 14.5 | 0.00 | 0.00 | 0.00 | 79 | 1022.4 |
| 20260906094606 | 17 | 131 | 8.0 | 16.1 | 0.00 | 0.00 | 0.00 | 81 | 1022.4 |
| 20260906094106 | 17 | 126 | 8.0 | 16.1 | 0.00 | 0.00 | 0.00 | 80 | 1022.4 |
| 20260906093606 | 17 | 132 | 8.0 | 14.5 | 0.00 | 0.00 | 0.00 | 80 | 1022.5 |
| 20260906093106 | 16 | 136 | 4.8 | 11.3 | 0.00 | 0.00 | 0.00 | 82 | 1022.5 |
| 20260906092606 | 16 | 132 | 8.0 | 19.3 | 0.00 | 0.00 | 0.00 | 82 | 1022.6 |
| 20260906092106 | 16 | 150 | 3.2 | 11.3 | 0.00 | 0.00 | 0.00 | 83 | 1022.5 |
| 20260906091606 | 17 | 118 | 8.0 | 16.1 | 0.00 | 0.00 | 0.00 | 79 | 1022.5 |
| 20260906091106 | 17 | 122 | 8.0 | 14.5 | 0.00 | 0.00 | 0.00 | 78 | 1022.6 |
| 20260906090606 | 17 | 137 | 4.8 | 11.3 | 0.00 | 0.00 | 0.00 | 79 | 1022.6 |
| 20260906085606 | 17 | 159 | 4.8 | 11.3 | 0.00 | 0.00 | 0.00 | 80 | 1022.7 |
| 20260906085106 | 16 | 139 | 4.8 | 14.5 | 0.00 | 0.00 | 0.00 | 81 | 1022.6 |
| 20260906084606 | 16 | 133 | 6.4 | 12.9 | 0.00 | 0.00 | 0.00 | 82 | 1022.6 |
| 20260906084106 | 16 | 157 | 9.7 | 14.5 | 0.00 | 0.00 | 0.00 | 78 | 1022.5 |
| 20260906083606 | 16 | 140 | 9.7 | 14.5 | 0.00 | 0.00 | 0.00 | 78 | 1022.5 |
| 20260906083105 | 17 | 137 | 6.4 | 14.5 | 0.00 | 0.00 | 0.00 | 79 | 1022.5 |
| 20260906082606 | 16 | 146 | 4.8 | 11.3 | 0.00 | 0.00 | 0.00 | 78 | 1022.5 |
| 20260906082106 | 16 | 131 | 8.0 | 14.5 | 0.00 | 0.00 | 0.00 | 77 | 1022.5 |
| 20260906081606 | 17 | 136 | 4.8 | 12.9 | 0.00 | 0.00 | 0.00 | 76 | 1022.5 |
| 20260906081105 | 17 | 128 | 4.8 | 12.9 | 0.00 | 0.00 | 0.00 | 77 | 1022.5 |
| 20260906080606 | 17 | 144 | 3.2 | 9.7 | 0.00 | 0.00 | 0.00 | 77 | 1022.5 |
| 20260906080106 | 17 | 149 | 3.2 | 8.0 | 0.00 | 0.00 | 0.00 | 79 | 1022.5 |
| 20260906075106 | 17 | 130 | 6.4 | 14.5 | 0.00 | 0.00 | 0.00 | 77 | 1022.4 |
| 20260906074606 | 17 | 124 | 4.8 | 11.3 | 0.00 | 0.00 | 0.00 | 78 | 1022.4 |
| 20260906074106 | 17 | 122 | 6.4 | 12.9 | 0.00 | 0.00 | 0.00 | 77 | 1022.3 |
| 20260906073106 | 16 | 111 | 3.2 | 8.0 | 0.00 | 0.00 | 0.00 | 81 | 1022.3 |
| 20260906072606 | 16 | 104 | 1.6 | 4.8 | 0.00 | 0.00 | 0.00 | 82 | 1022.3 |
| 20260906072106 | 16 | 98 | 4.8 | 11.3 | 0.00 | 0.00 | 0.00 | 82 | 1022.3 |
| 20260906071606 | 15 | 73 | 4.8 | 8.0 | 0.00 | 0.00 | 0.00 | 84 | 1022.3 |
| 20260906070605 | 15 | 88 | 3.2 | 12.9 | 0.00 | 0.00 | 0.00 | 83 | 1022.2 |
| 20260906070106 | 15 | 129 | 4.8 | 8.0 | 0.00 | 0.00 | 0.00 | 82 | 1022.2 |
| 20260906065105 | 15 | 132 | 3.2 | 8.0 | 0.00 | 0.00 | 0.00 | 84 | 1022.1 |
| 20260906064606 | 15 | 133 | 3.2 | 8.0 | 0.00 | 0.00 | 0.00 | 85 | 1022.1 |
| 20260906064106 | 14 | 126 | 3.2 | 8.0 | 0.00 | 0.00 | 0.00 | 85 | 1022.0 |
| 20260906063606 | 14 | 88 | 1.6 | 9.7 | 0.00 | 0.00 | 0.00 | 85 | 1022.0 |
| 20260906063106 | 14 | 88 | 3.2 | 8.0 | 0.00 | 0.00 | 0.00 | 85 | 1022.0 |
| 20260906062606 | 14 | 86 | 8.0 | 12.9 | 0.00 | 0.00 | 0.00 | 85 | 1021.9 |
| 20260906062106 | 14 | 74 | 3.2 | 4.8 | 0.00 | 0.00 | 0.00 | 85 | 1021.9 |
| 20260906061605 | 14 | 73 | 3.2 | 4.8 | 0.00 | 0.00 | 0.00 | 84 | 1021.9 |
| 20260906061106 | 15 | 70 | 3.2 | 4.8 | 0.00 | 0.00 | 0.00 | 84 | 1021.8 |
| 20260906060605 | 14 | 70 | 3.2 | 4.8 | 0.00 | 0.00 | 0.00 | 85 | 1021.8 |
| 20260906055606 | 14 | 68 | 3.2 | 11.3 | 0.00 | 0.00 | 0.00 | 85 | 1021.6 |
| 20260906055106 | 14 | 69 | 4.8 | 11.3 | 0.00 | 0.00 | 0.00 | 85 | 1021.6 |
| 20260906054605 | 13 | 65 | 3.2 | 8.0 | 0.00 | 0.00 | 0.00 | 85 | 1021.6 |
| 20260906054106 | 13 | 62 | 4.8 | 11.3 | 0.00 | 0.00 | 0.00 | 85 | 1021.6 |
| 20260906053605 | 13 | 55 | 4.8 | 11.3 | 0.00 | 0.00 | 0.00 | 86 | 1021.6 |
| 20260906053106 | 13 | 45 | 4.8 | 9.7 | 0.00 | 0.00 | 0.00 | 85 | 1021.5 |
| 20260906052606 | 13 | 65 | 9.7 | 12.9 | 0.00 | 0.00 | 0.00 | 86 | 1021.5 |
| 20260906052106 | 13 | 85 | 6.4 | 11.3 | 0.00 | 0.00 | 0.00 | 85 | 1021.4 |
| 20260906051605 | 12 | 84 | 4.8 | 9.7 | 0.00 | 0.00 | 0.00 | 85 | 1021.4 |
| 20260906050605 | 12 | 82 | 4.8 | 11.3 | 0.00 | 0.00 | 0.00 | 83 | 1021.3 |
| 20260906050106 | 12 | 82 | 8.0 | 11.3 | 0.00 | 0.00 | 0.00 | 82 | 1021.3 |
| 20260906045605 | 12 | 79 | 6.4 | 11.3 | 0.00 | 0.00 | 0.00 | 82 | 1021.2 |
| 20260906044606 | 12 | 65 | 4.8 | 11.3 | 0.00 | 0.00 | 0.00 | 83 | 1021.1 |
| 20260906044105 | 12 | 68 | 6.4 | 14.5 | 0.00 | 0.00 | 0.00 | 83 | 1021.1 |
| 20260906043605 | 12 | 67 | 6.4 | 12.9 | 0.00 | 0.00 | 0.00 | 84 | 1021.1 |
| 20260906043105 | 12 | 62 | 8.0 | 14.5 | 0.00 | 0.00 | 0.00 | 84 | 1021.0 |
| 20260906042605 | 12 | 72 | 8.0 | 12.9 | 0.00 | 0.00 | 0.00 | 84 | 1021.0 |
| 20260906042106 | 12 | 81 | 9.7 | 14.5 | 0.00 | 0.00 | 0.00 | 84 | 1021.1 |
| 20260906041606 | 12 | 83 | 4.8 | 9.7 | 0.00 | 0.00 | 0.00 | 84 | 1021.0 |
| 20260906040605 | 12 | 92 | 4.8 | 11.3 | 0.00 | 0.00 | 0.00 | 84 | 1021.1 |
| 20260906040105 | 12 | 107 | 6.4 | 11.3 | 0.00 | 0.00 | 0.00 | 84 | 1021.0 |
| 20260906035606 | 12 | 107 | 6.4 | 11.3 | 0.00 | 0.00 | 0.00 | 84 | 1020.9 |
| 20260906035106 | 12 | 113 | 6.4 | 11.3 | 0.00 | 0.00 | 0.00 | 84 | 1020.9 |
| 20260906034606 | 12 | 112 | 6.4 | 11.3 | 0.00 | 0.00 | 0.00 | 84 | 1020.8 |
| 20260906034105 | 12 | 112 | 4.8 | 11.3 | 0.00 | 0.00 | 0.00 | 84 | 1020.7 |
| 20260906033605 | 12 | 114 | 4.8 | 8.0 | 0.00 | 0.00 | 0.00 | 84 | 1020.6 |
| 20260906033105 | 12 | 114 | 6.4 | 8.0 | 0.00 | 0.00 | 0.00 | 84 | 1020.5 |
| 20260906032606 | 12 | 112 | 4.8 | 4.8 | 0.00 | 0.00 | 0.00 | 84 | 1020.4 |
| 20260906032106 | 13 | 112 | 4.8 | 8.0 | 0.00 | 0.00 | 0.00 | 85 | 1020.4 |
| 20260906031605 | 13 | 106 | 3.2 | 4.8 | 0.00 | 0.00 | 0.00 | 85 | 1020.3 |
| 20260906031105 | 13 | 106 | 4.8 | 8.0 | 0.00 | 0.00 | 0.00 | 85 | 1020.2 |
| 20260906030606 | 13 | 106 | 6.4 | 8.0 | 0.00 | 0.00 | 0.00 | 86 | 1020.2 |
| 20260906030106 | 13 | 106 | 4.8 | 8.0 | 0.00 | 0.00 | 0.00 | 86 | 1020.2 |
| 20260906025605 | 13 | 106 | 6.4 | 11.3 | 0.00 | 0.00 | 0.00 | 86 | 1020.2 |
| 20260906025105 | 13 | 106 | 6.4 | 8.0 | 0.00 | 0.00 | 0.00 | 86 | 1020.2 |
| 20260906023605 | 13 | 107 | 3.2 | 4.8 | 0.00 | 0.00 | 0.00 | 85 | 1020.2 |
| 20260906023105 | 13 | 107 | 4.8 | 8.0 | 0.00 | 0.00 | 0.00 | 85 | 1020.2 |
| 20260906022606 | 13 | 112 | 3.2 | 4.8 | 0.00 | 0.00 | 0.00 | 85 | 1020.2 |
| 20260906021605 | 13 | 112 | 3.2 | 4.8 | 0.00 | 0.00 | 0.00 | 85 | 1020.3 |
| 20260906021106 | 13 | 112 | 3.2 | 4.8 | 0.00 | 0.00 | 0.00 | 85 | 1020.2 |
| 20260906020606 | 13 | 112 | 1.6 | 4.8 | 0.00 | 0.00 | 0.00 | 85 | 1020.1 |
| 20260906015606 | 13 | 113 | 4.8 | 8.0 | 0.00 | 0.00 | 0.00 | 85 | 1020.1 |
| 20260906015105 | 13 | 113 | 3.2 | 8.0 | 0.00 | 0.00 | 0.00 | 85 | 1020.2 |
| 20260906014606 | 13 | 113 | 3.2 | 8.0 | 0.00 | 0.00 | 0.00 | 85 | 1020.1 |
| 20260906014105 | 13 | 112 | 6.4 | 11.3 | 0.00 | 0.00 | 0.00 | 85 | 1020.1 |
| 20260906013105 | 13 | 90 | 1.6 | 4.8 | 0.00 | 0.00 | 0.00 | 85 | 1020.1 |
| 20260906012106 | 13 | 90 | 4.8 | 9.7 | 0.00 | 0.00 | 0.00 | 85 | 1020.0 |
| 20260906011605 | 13 | 90 | 4.8 | 9.7 | 0.00 | 0.00 | 0.00 | 86 | 1020.0 |
| 20260906011105 | 13 | 90 | 4.8 | 9.7 | 0.00 | 0.00 | 0.00 | 85 | 1020.0 |
| 20260906010606 | 13 | 90 | 3.2 | 8.0 | 0.00 | 0.00 | 0.00 | 85 | 1020.0 |
| 20260906010105 | 13 | 90 | 4.8 | 8.0 | 0.00 | 0.00 | 0.00 | 85 | 1020.0 |
| 20260906005105 | 14 | 90 | 3.2 | 8.0 | 0.00 | 0.00 | 0.00 | 85 | 1020.1 |
| 20260906004606 | 14 | 91 | 3.2 | 4.8 | 0.00 | 0.00 | 0.00 | 85 | 1020.1 |
| 20260906004105 | 14 | 91 | 1.6 | 4.8 | 0.00 | 0.00 | 0.00 | 85 | 1020.1 |
| 20260906003605 | 14 | 92 | 4.8 | 8.0 | 0.00 | 0.00 | 0.00 | 85 | 1020.1 |
| 20260906003105 | 14 | 92 | 4.8 | 9.7 | 0.00 | 0.00 | 0.00 | 85 | 1020.2 |
| 20260906002105 | 14 | 61 | 1.6 | 8.0 | 0.00 | 0.00 | 0.00 | 83 | 1020.2 |
| 20260906001105 | 14 | 54 | 0.0 | 0.0 | 0.00 | 0.00 | 0.00 | 85 | 1020.3 |
| 20260906000105 | 15 | 54 | 3.2 | 8.0 | 0.00 | 0.00 | 0.00 | 85 | 1020.2 |
| 20260905235605 | 15 | 54 | 3.2 | 4.8 | 0.00 | 0.00 | 0.00 | 85 | 1020.2 |
| 20260905235105 | 15 | 55 | 3.2 | 4.8 | 0.00 | 0.00 | 0.00 | 85 | 1020.2 |
| 20260905234605 | 15 | 55 | 4.8 | 4.8 | 0.00 | 0.00 | 0.00 | 85 | 1020.2 |
| 20260905234105 | 15 | 54 | 3.2 | 4.8 | 0.00 | 0.00 | 0.00 | 85 | 1020.1 |
| 20260905233605 | 15 | 55 | 4.8 | 4.8 | 0.00 | 0.00 | 0.00 | 85 | 1020.1 |
| 20260905233106 | 15 | 55 | 3.2 | 4.8 | 0.00 | 0.00 | 0.00 | 85 | 1020.1 |
| 20260905232605 | 15 | 64 | 4.8 | 9.7 | 0.00 | 0.00 | 0.00 | 85 | 1020.2 |
| 20260905231605 | 15 | 74 | 1.6 | 4.8 | 0.00 | 0.00 | 0.00 | 85 | 1020.2 |
| 20260905231105 | 15 | 74 | 1.6 | 4.8 | 0.00 | 0.00 | 0.00 | 85 | 1020.2 |
| 20260905230605 | 15 | 74 | 3.2 | 9.7 | 0.00 | 0.00 | 0.00 | 85 | 1020.1 |
| 20260905230105 | 15 | 94 | 6.4 | 9.7 | 0.00 | 0.00 | 0.00 | 85 | 1020.1 |
| 20260905225105 | 15 | 92 | 0.0 | 0.0 | 0.00 | 0.00 | 0.00 | 85 | 1020.1 |
| 20260905224605 | 15 | 92 | 0.0 | 0.0 | 0.00 | 0.00 | 0.00 | 84 | 1020.1 |
| 20260905224105 | 15 | 92 | 0.0 | 0.0 | 0.00 | 0.00 | 0.00 | 83 | 1020.0 |
| 20260905223605 | 15 | 92 | 0.0 | 0.0 | 0.00 | 0.00 | 0.00 | 83 | 1020.0 |
| 20260905223105 | 14 | 92 | 0.0 | 0.0 | 0.00 | 0.00 | 0.00 | 83 | 1019.9 |
| 20260905222605 | 14 | 92 | 0.0 | 0.0 | 0.00 | 0.00 | 0.00 | 83 | 1019.9 |
| 20260905222105 | 14 | 92 | 0.0 | 1.6 | 0.00 | 0.00 | 0.00 | 83 | 1019.9 |
| 20260905221606 | 14 | 92 | 0.0 | 4.8 | 0.00 | 0.00 | 0.00 | 83 | 1019.9 |
| 20260905221105 | 14 | 92 | 3.2 | 4.8 | 0.00 | 0.00 | 0.00 | 83 | 1019.9 |
| 20260905220605 | 14 | 92 | 1.6 | 4.8 | 0.00 | 0.00 | 0.00 | 83 | 1019.9 |
| 20260905220105 | 14 | 92 | 3.2 | 8.0 | 0.00 | 0.00 | 0.00 | 84 | 1019.9 |
| 20260905215604 | 14 | 92 | 3.2 | 8.0 | 0.00 | 0.00 | 0.00 | 84 | 1019.9 |
| 20260905215105 | 14 | 91 | 8.0 | 11.3 | 0.00 | 0.00 | 0.00 | 84 | 1019.8 |
| 20260905214605 | 14 | 68 | 4.8 | 8.0 | 0.00 | 0.00 | 0.00 | 84 | 1019.9 |
| 20260905214105 | 14 | 67 | 3.2 | 8.0 | 0.00 | 0.00 | 0.00 | 84 | 1019.8 |
| 20260905213105 | 13 | 56 | 6.4 | 12.9 | 0.00 | 0.00 | 0.00 | 85 | 1019.8 |
| 20260905212605 | 13 | 51 | 4.8 | 9.7 | 0.00 | 0.00 | 0.00 | 85 | 1019.8 |
| 20260905212105 | 13 | 42 | 6.4 | 9.7 | 0.00 | 0.00 | 0.00 | 85 | 1019.7 |
| 20260905211605 | 14 | 0 | 4.8 | 4.8 | 0.00 | 0.00 | 0.00 | 85 | 1019.7 |
| 20260905210605 | 14 | 345 | 3.2 | 4.8 | 0.00 | 0.00 | 0.00 | 85 | 1019.6 |
| 20260905210105 | 15 | 355 | 1.6 | 4.8 | 0.00 | 0.00 | 0.00 | 84 | 1019.6 |
| 20260905205605 | 15 | 343 | 3.2 | 4.8 | 0.00 | 0.00 | 0.00 | 85 | 1019.6 |
| 20260905205105 | 15 | 343 | 0.0 | 4.8 | 0.00 | 0.00 | 0.00 | 85 | 1019.6 |
| 20260905204605 | 15 | 348 | 1.6 | 4.8 | 0.00 | 0.00 | 0.00 | 84 | 1019.6 |
| 20260905204105 | 15 | 343 | 0.0 | 4.8 | 0.00 | 0.00 | 0.00 | 84 | 1019.5 |
| 20260905203605 | 15 | 351 | 1.6 | 3.2 | 0.00 | 0.00 | 0.00 | 84 | 1019.5 |
| 20260905203105 | 15 | 353 | 1.6 | 4.8 | 0.00 | 0.00 | 0.00 | 85 | 1019.5 |
| 20260905202605 | 15 | 344 | 4.8 | 8.0 | 0.00 | 0.00 | 0.00 | 85 | 1019.5 |
| 20260905202105 | 15 | 343 | 4.8 | 8.0 | 0.00 | 0.00 | 0.00 | 85 | 1019.4 |
| 20260905201605 | 16 | 352 | 3.2 | 4.8 | 0.00 | 0.00 | 0.00 | 85 | 1019.4 |
| 20260905201105 | 16 | 350 | 3.2 | 4.8 | 0.00 | 0.00 | 0.00 | 85 | 1019.4 |
| 20260905200605 | 16 | 358 | 4.8 | 11.3 | 0.00 | 0.00 | 0.00 | 82 | 1019.3 |
| 20260905200105 | 16 | 0 | 11.3 | 19.3 | 0.00 | 0.00 | 0.00 | 82 | 1019.2 |
| 20260905195605 | 16 | 0 | 16.1 | 20.9 | 0.00 | 0.00 | 0.00 | 82 | 1019.2 |
| 20260905195105 | 16 | 0 | 17.7 | 24.1 | 0.00 | 0.00 | 0.00 | 82 | 1019.1 |
| 20260905194605 | 16 | 358 | 16.1 | 20.9 | 0.00 | 0.00 | 0.00 | 81 | 1019.1 |
| 20260905194105 | 16 | 354 | 16.1 | 19.3 | 0.00 | 0.00 | 0.00 | 81 | 1019.1 |
| 20260905193605 | 17 | 0 | 16.1 | 20.9 | 0.00 | 0.00 | 0.00 | 79 | 1019.0 |
| 20260905193105 | 17 | 354 | 17.7 | 22.5 | 0.00 | 0.00 | 0.00 | 79 | 1019.0 |
| 20260905192605 | 17 | 0 | 14.5 | 19.3 | 0.00 | 0.00 | 0.00 | 79 | 1018.9 |
| 20260905192105 | 16 | 358 | 9.7 | 16.1 | 0.00 | 0.00 | 0.00 | 79 | 1018.9 |
| 20260905191604 | 16 | 0 | 8.0 | 11.3 | 0.00 | 0.00 | 0.00 | 79 | 1018.8 |
| 20260905191105 | 17 | 0 | 3.2 | 8.0 | 0.00 | 0.00 | 0.00 | 80 | 1018.8 |
| 20260905190605 | 17 | 0 | 4.8 | 9.7 | 0.00 | 0.00 | 0.00 | 79 | 1018.8 |
| 20260905190105 | 17 | 0 | 8.0 | 9.7 | 0.00 | 0.00 | 0.00 | 79 | 1018.7 |
| 20260905185604 | 17 | 356 | 8.0 | 12.9 | 0.00 | 0.00 | 0.00 | 78 | 1018.7 |
| 20260905185105 | 17 | 353 | 11.3 | 16.1 | 0.00 | 0.00 | 0.00 | 79 | 1018.7 |
| 20260905184607 | 17 | 0 | 11.3 | 16.1 | 0.00 | 0.00 | 0.00 | 79 | 1018.6 |
| 20260905184105 | 16 | 356 | 14.5 | 19.3 | 0.00 | 0.00 | 0.00 | 81 | 1018.5 |
| 20260905183604 | 16 | 356 | 9.7 | 16.1 | 0.00 | 0.00 | 0.00 | 81 | 1018.4 |
| 20260905183104 | 16 | 0 | 4.8 | 12.9 | 0.00 | 0.00 | 0.00 | 83 | 1018.3 |
| 20260905182605 | 16 | 342 | 4.8 | 9.7 | 0.00 | 0.00 | 0.00 | 83 | 1018.4 |
| 20260905181604 | 16 | 358 | 4.8 | 9.7 | 0.00 | 0.00 | 0.00 | 83 | 1018.3 |
| 20260905181106 | 16 | 0 | 4.8 | 11.3 | 0.00 | 0.00 | 0.00 | 84 | 1018.3 |
| 20260905180605 | 16 | 356 | 6.4 | 9.7 | 0.00 | 0.00 | 0.00 | 85 | 1018.3 |
| 20260905180105 | 16 | 336 | 6.4 | 9.7 | 0.00 | 0.00 | 0.00 | 85 | 1018.4 |
| 20260905175105 | 16 | 344 | 4.8 | 11.3 | 0.00 | 0.00 | 0.00 | 85 | 1018.1 |
| 20260905174605 | 16 | 358 | 4.8 | 9.7 | 0.00 | 0.00 | 0.00 | 85 | 1018.0 |
| 20260905174105 | 16 | 343 | 8.0 | 11.3 | 0.00 | 0.00 | 0.00 | 85 | 1018.0 |
| 20260905173605 | 17 | 358 | 6.4 | 11.3 | 0.00 | 0.00 | 0.00 | 84 | 1017.9 |
| 20260905173105 | 17 | 341 | 4.8 | 12.9 | 0.00 | 0.00 | 0.00 | 84 | 1017.9 |
| 20260905172604 | 17 | 341 | 3.2 | 9.7 | 0.00 | 0.00 | 0.00 | 83 | 1017.9 |
| 20260905172104 | 17 | 269 | 1.6 | 4.8 | 0.00 | 0.00 | 0.00 | 83 | 1018.0 |
| 20260905171605 | 17 | 268 | 1.6 | 4.8 | 0.00 | 0.00 | 0.00 | 83 | 1017.9 |
| 20260905171105 | 17 | 261 | 1.6 | 4.8 | 0.00 | 0.00 | 0.00 | 83 | 1018.0 |
| 20260905170604 | 17 | 234 | 3.2 | 4.8 | 0.00 | 0.00 | 0.00 | 84 | 1017.9 |
| 20260905170105 | 17 | 245 | 1.6 | 4.8 | 0.00 | 0.00 | 0.00 | 83 | 1017.9 |
| 20260905165605 | 17 | 229 | 1.6 | 4.8 | 0.00 | 0.00 | 0.00 | 82 | 1017.8 |
| 20260905165105 | 17 | 249 | 1.6 | 9.7 | 0.00 | 0.00 | 0.00 | 82 | 1017.8 |
| 20260905163604 | 17 | 248 | 1.6 | 4.8 | 0.00 | 0.00 | 0.00 | 83 | 1017.7 |
| 20260905163105 | 17 | 212 | 1.6 | 8.0 | 0.00 | 0.00 | 0.00 | 83 | 1017.7 |
| 20260905162605 | 17 | 339 | 3.2 | 4.8 | 0.00 | 0.00 | 0.00 | 83 | 1017.6 |
| 20260905162105 | 18 | 225 | 1.6 | 4.8 | 0.00 | 0.00 | 0.00 | 82 | 1017.6 |
| 20260905161606 | 18 | 219 | 3.2 | 9.7 | 0.00 | 0.00 | 0.00 | 82 | 1017.6 |
| 20260905161105 | 18 | 277 | 3.2 | 8.0 | 0.00 | 0.00 | 0.00 | 82 | 1017.6 |
| 20260905160604 | 18 | 269 | 3.2 | 8.0 | 0.00 | 0.00 | 0.00 | 82 | 1017.5 |
| 20260905160105 | 18 | 265 | 3.2 | 8.0 | 0.00 | 0.00 | 0.00 | 82 | 1017.6 |
| 20260905155605 | 18 | 256 | 3.2 | 8.0 | 0.00 | 0.00 | 0.00 | 82 | 1017.5 |
| 20260905154604 | 18 | 236 | 1.6 | 4.8 | 0.00 | 0.00 | 0.00 | 81 | 1017.4 |
| 20260905154104 | 18 | 218 | 3.2 | 4.8 | 0.00 | 0.00 | 0.00 | 81 | 1017.5 |
| 20260905153604 | 18 | 236 | 1.6 | 4.8 | 0.00 | 0.00 | 0.00 | 81 | 1017.4 |
| 20260905153104 | 18 | 224 | 1.6 | 4.8 | 0.00 | 0.00 | 0.00 | 82 | 1017.4 |
| 20260905152605 | 18 | 212 | 1.6 | 9.7 | 0.00 | 0.00 | 0.00 | 82 | 1017.3 |
| 20260905152105 | 18 | 226 | 3.2 | 4.8 | 0.00 | 0.00 | 0.00 | 83 | 1017.3 |
| 20260905151604 | 17 | 221 | 3.2 | 4.8 | 0.00 | 0.00 | 0.00 | 84 | 1017.3 |
| 20260905151105 | 17 | 166 | 8.0 | 11.3 | 0.00 | 0.00 | 0.00 | 84 | 1017.4 |
| 20260905150605 | 17 | 187 | 4.8 | 9.7 | 0.00 | 0.00 | 0.00 | 85 | 1017.3 |
| 20260905150104 | 17 | 158 | 8.0 | 12.9 | 0.00 | 0.00 | 0.00 | 85 | 1017.2 |
| 20260905145606 | 17 | 163 | 9.7 | 14.5 | 0.00 | 0.00 | 0.00 | 84 | 1017.2 |
| 20260905145104 | 18 | 148 | 6.4 | 9.7 | 0.00 | 0.00 | 0.00 | 83 | 1017.1 |
| 20260905144604 | 18 | 149 | 8.0 | 11.3 | 0.00 | 0.00 | 0.00 | 84 | 1017.1 |
| 20260905144104 | 17 | 148 | 9.7 | 12.9 | 0.00 | 0.00 | 0.00 | 84 | 1017.1 |
| 20260905143605 | 17 | 172 | 8.0 | 11.3 | 0.00 | 0.00 | 0.00 | 84 | 1017.1 |
| 20260905143105 | 18 | 159 | 9.7 | 12.9 | 0.00 | 0.00 | 0.00 | 82 | 1017.0 |
| 20260905142605 | 18 | 165 | 4.8 | 9.7 | 0.00 | 0.00 | 0.00 | 83 | 1017.0 |
| 20260905142105 | 18 | 165 | 6.4 | 11.3 | 0.00 | 0.00 | 0.00 | 83 | 1017.1 |
| 20260905141605 | 18 | 170 | 4.8 | 9.7 | 0.00 | 0.00 | 0.00 | 81 | 1017.2 |
| 20260905141104 | 18 | 168 | 3.2 | 8.0 | 0.00 | 0.00 | 0.00 | 83 | 1017.2 |
| 20260905140605 | 18 | 172 | 6.4 | 11.3 | 0.00 | 0.00 | 0.00 | 82 | 1017.2 |
| 20260905135104 | 18 | 175 | 4.8 | 12.9 | 0.00 | 0.00 | 0.00 | 81 | 1017.1 |
| 20260905134605 | 18 | 153 | 6.4 | 12.9 | 0.00 | 0.00 | 0.00 | 81 | 1017.2 |
| 20260905133605 | 19 | 154 | 3.2 | 12.9 | 0.00 | 0.00 | 0.00 | 80 | 1017.1 |
| 20260905133105 | 19 | 157 | 4.8 | 9.7 | 0.00 | 0.00 | 0.00 | 78 | 1017.2 |
| 20260905132607 | 18 | 244 | 8.0 | 14.5 | 0.00 | 0.00 | 0.00 | 82 | 1017.2 |
| 20260905132104 | 18 | 157 | 8.0 | 14.5 | 0.00 | 0.00 | 0.00 | 82 | 1017.2 |
| 20260905131604 | 18 | 157 | 8.0 | 11.3 | 0.00 | 0.00 | 0.00 | 82 | 1017.2 |
| 20260905131104 | 19 | 136 | 8.0 | 12.9 | 0.00 | 0.00 | 0.00 | 79 | 1017.2 |
| 20260905130605 | 20 | 172 | 4.8 | 9.7 | 0.00 | 0.00 | 0.00 | 79 | 1017.3 |
| 20260905130104 | 19 | 173 | 3.2 | 9.7 | 0.00 | 0.00 | 0.00 | 80 | 1017.3 |
| 20260905125604 | 19 | 186 | 1.6 | 11.3 | 0.00 | 0.00 | 0.00 | 80 | 1017.3 |
| 20260905124605 | 19 | 161 | 4.8 | 9.7 | 0.00 | 0.00 | 0.00 | 81 | 1017.2 |
| 20260905124104 | 20 | 162 | 6.4 | 9.7 | 0.00 | 0.00 | 0.00 | 79 | 1017.2 |
| 20260905123604 | 20 | 162 | 6.4 | 11.3 | 0.00 | 0.00 | 0.00 | 79 | 1017.3 |
| 20260905123105 | 20 | 157 | 1.6 | 9.7 | 0.00 | 0.00 | 0.00 | 79 | 1017.3 |
| 20260905122604 | 20 | 157 | 8.0 | 9.7 | 0.00 | 0.00 | 0.00 | 78 | 1017.4 |
| 20260905122104 | 20 | 177 | 3.2 | 4.8 | 0.00 | 0.00 | 0.00 | 76 | 1017.4 |
| 20260905121104 | 21 | 170 | 3.2 | 4.8 | 0.00 | 0.00 | 0.00 | 74 | 1017.4 |
| 20260905120604 | 21 | 168 | 1.6 | 4.8 | 0.00 | 0.00 | 0.00 | 76 | 1017.4 |
| 20260905120105 | 20 | 167 | 1.6 | 8.0 | 0.00 | 0.00 | 0.00 | 77 | 1017.4 |
| 20260905115604 | 20 | 166 | 4.8 | 8.0 | 0.00 | 0.00 | 0.00 | 76 | 1017.4 |
| 20260905115105 | 20 | 167 | 1.6 | 9.7 | 0.00 | 0.00 | 0.00 | 77 | 1017.5 |
| 20260905114604 | 20 | 163 | 1.6 | 4.8 | 0.00 | 0.00 | 0.00 | 76 | 1017.5 |
| 20260905114104 | 21 | 160 | 3.2 | 4.8 | 0.00 | 0.00 | 0.00 | 75 | 1017.4 |
| 20260905112604 | 21 | 152 | 3.2 | 8.0 | 0.00 | 0.00 | 0.00 | 76 | 1017.3 |
| 20260905112104 | 20 | 155 | 1.6 | 4.8 | 0.00 | 0.00 | 0.00 | 78 | 1017.2 |
| 20260905111104 | 20 | 150 | 1.6 | 4.8 | 0.00 | 0.00 | 0.00 | 78 | 1017.2 |
| 20260905110604 | 20 | 144 | 3.2 | 4.8 | 0.00 | 0.00 | 0.00 | 77 | 1017.2 |
| 20260905105604 | 20 | 146 | 3.2 | 4.8 | 0.00 | 0.00 | 0.00 | 77 | 1017.2 |
| 20260905105104 | 21 | 146 | 3.2 | 4.8 | 0.00 | 0.00 | 0.00 | 75 | 1017.3 |
| 20260905104605 | 21 | 146 | 1.6 | 3.2 | 0.00 | 0.00 | 0.00 | 75 | 1017.3 |
| 20260905104104 | 21 | 145 | 1.6 | 4.8 | 0.00 | 0.00 | 0.00 | 75 | 1017.2 |
| 20260905103604 | 21 | 139 | 1.6 | 4.8 | 0.00 | 0.00 | 0.00 | 74 | 1017.2 |
| 20260905102606 | 22 | 142 | 0.0 | 4.8 | 0.00 | 0.00 | 0.00 | 73 | 1017.2 |
| 20260905101605 | 22 | 141 | 1.6 | 3.2 | 0.00 | 0.00 | 0.00 | 72 | 1017.3 |
| 20260905101106 | 21 | 141 | 1.6 | 4.8 | 0.00 | 0.00 | 0.00 | 72 | 1017.2 |
| 20260905100606 | 21 | 141 | 3.2 | 8.0 | 0.00 | 0.00 | 0.00 | 74 | 1017.3 |